createdAt,value
2018-05-27T00:02:05.242Z,76.42
2018-05-27T00:04:32.718Z,76.69
2018-05-27T00:07:00.212Z,76.62
2018-05-27T00:09:27.678Z,76.56
2018-05-27T00:11:55.137Z,76.65
2018-05-27T00:14:22.607Z,76.70
2018-05-27T00:16:50.081Z,76.74
2018-05-27T00:19:17.572Z,77.01
2018-05-27T00:21:45.069Z,77.16
2018-05-27T00:24:12.661Z,77.14
2018-05-27T00:26:40.160Z,77.28
2018-05-27T00:29:07.662Z,77.16
2018-05-27T00:31:35.179Z,77.21
2018-05-27T00:34:02.658Z,77.77
2018-05-27T00:36:30.146Z,78.26
2018-05-27T00:38:57.601Z,78.50
2018-05-27T00:41:25.054Z,78.75
2018-05-27T00:43:52.523Z,78.81
2018-05-27T00:46:19.982Z,78.90
2018-05-27T00:48:47.482Z,79.01
2018-05-27T00:51:14.945Z,79.30
2018-05-27T00:53:54.283Z,79.64
2018-05-27T00:56:21.743Z,80.04
2018-05-27T00:58:49.198Z,80.18
2018-05-27T01:01:16.681Z,80.41
2018-05-27T01:03:44.221Z,80.70
2018-05-27T01:06:11.754Z,80.73
2018-05-27T01:08:39.262Z,80.84
2018-05-27T01:11:06.753Z,80.95
2018-05-27T01:13:34.222Z,80.96
2018-05-27T01:16:01.716Z,80.95
2018-05-27T01:18:29.185Z,80.94
2018-05-27T01:20:56.643Z,80.97
2018-05-27T01:23:24.133Z,80.83
2018-05-27T01:25:51.591Z,81.00
2018-05-27T01:28:19.038Z,81.05
2018-05-27T01:30:46.514Z,80.98
2018-05-27T01:33:13.958Z,80.59
2018-05-27T01:35:41.435Z,80.39
2018-05-27T01:38:08.897Z,80.55
2018-05-27T01:40:36.354Z,81.06
2018-05-27T01:43:03.838Z,81.19
2018-05-27T01:45:31.297Z,81.32
2018-05-27T01:47:58.758Z,82.17
2018-05-27T01:50:26.310Z,82.29
2018-05-27T01:52:53.820Z,82.50
2018-05-27T01:55:21.296Z,83.02
2018-05-27T01:57:48.761Z,83.39
2018-05-27T02:00:16.246Z,84.17
2018-05-27T02:02:43.694Z,84.63
2018-05-27T02:05:11.178Z,84.80
2018-05-27T02:07:38.655Z,84.82
2018-05-27T02:10:06.118Z,84.81
2018-05-27T02:25:28.814Z,84.09
2018-05-27T02:27:56.265Z,83.79
2018-05-27T02:30:23.731Z,83.59
2018-05-27T02:32:51.197Z,83.32
2018-05-27T02:35:18.705Z,83.10
2018-05-27T02:37:46.167Z,82.86
2018-05-27T02:40:13.647Z,82.82
2018-05-27T02:42:41.091Z,82.99
2018-05-27T02:45:08.546Z,83.02
2018-05-27T02:47:36.037Z,83.06
2018-05-27T02:50:03.518Z,83.17
2018-05-27T02:52:30.973Z,83.54
2018-05-27T02:54:58.471Z,83.83
2018-05-27T02:57:25.941Z,84.01
2018-05-27T02:59:53.409Z,84.33
2018-05-27T03:02:20.907Z,84.64
2018-05-27T03:04:48.379Z,84.66
2018-05-27T03:07:15.848Z,84.54
2018-05-27T03:09:43.341Z,84.51
2018-05-27T03:12:10.810Z,84.44
2018-05-27T03:14:38.274Z,84.32
2018-05-27T03:17:05.753Z,84.11
2018-05-27T03:19:33.229Z,84.17
2018-05-27T03:22:00.689Z,84.29
2018-05-27T03:24:28.179Z,84.66
2018-05-27T03:26:55.649Z,85.44
2018-05-27T03:29:23.160Z,85.57
2018-05-27T03:31:50.666Z,85.52
2018-05-27T03:34:18.159Z,85.36
2018-05-27T03:36:45.617Z,85.35
2018-05-27T03:39:13.098Z,85.62
2018-05-27T03:44:13.339Z,85.75
2018-05-27T03:46:40.805Z,85.69
2018-05-27T03:49:08.267Z,85.71
2018-05-27T03:51:35.734Z,85.69
2018-05-27T03:54:03.209Z,85.53
2018-05-27T03:56:30.692Z,85.12
2018-05-27T03:58:58.171Z,84.56
2018-05-27T04:01:25.626Z,84.25
2018-05-27T04:07:08.189Z,83.70
2018-05-27T04:09:35.667Z,83.18
2018-05-27T04:12:03.126Z,81.27
2018-05-27T04:14:30.585Z,80.31
2018-05-27T04:16:58.095Z,80.19
2018-05-27T04:19:25.550Z,80.20
2018-05-27T04:21:53.674Z,80.34
2018-05-27T04:24:21.207Z,79.66
2018-05-27T04:26:48.682Z,79.67
2018-05-27T04:29:16.150Z,79.41
2018-05-27T04:31:43.628Z,79.26
2018-05-27T04:34:11.084Z,78.94
2018-05-27T04:36:38.565Z,77.75
2018-05-27T04:39:06.081Z,77.20
2018-05-27T04:41:33.533Z,76.75
2018-05-27T04:44:01.041Z,76.55
2018-05-27T04:46:28.550Z,76.45
2018-05-27T04:48:56.010Z,76.25
2018-05-27T04:51:23.469Z,75.96
2018-05-27T04:53:50.947Z,75.83
2018-05-27T04:56:18.486Z,74.87
2018-05-27T04:58:45.948Z,74.54
2018-05-27T05:01:13.427Z,74.39
2018-05-27T05:03:40.934Z,73.85
2018-05-27T05:06:08.393Z,72.92
2018-05-27T05:08:35.879Z,72.52
2018-05-27T05:11:03.359Z,72.18
2018-05-27T05:13:30.826Z,71.64
2018-05-27T05:15:58.797Z,71.13
2018-05-27T05:18:26.273Z,70.70
2018-05-27T05:20:53.734Z,70.49
2018-05-27T05:23:21.239Z,70.22
2018-05-27T05:25:48.696Z,70.21
2018-05-27T05:28:16.152Z,70.12
2018-05-27T05:30:43.627Z,69.85
2018-05-27T05:33:11.089Z,69.62
2018-05-27T05:35:38.562Z,69.75
2018-05-27T05:38:06.055Z,69.64
2018-05-27T05:40:33.528Z,69.10
2018-05-27T05:43:00.990Z,68.63
2018-05-27T05:45:28.466Z,68.13
2018-05-27T05:47:55.923Z,67.99
2018-05-27T05:50:23.389Z,67.37
2018-05-27T05:52:50.859Z,67.01
2018-05-27T05:55:18.314Z,66.54
2018-05-27T05:57:45.774Z,66.23
2018-05-27T06:00:13.243Z,65.82
2018-05-27T06:02:40.729Z,65.26
2018-05-27T06:05:08.193Z,64.51
2018-05-27T06:07:35.704Z,64.22
2018-05-27T06:10:03.162Z,64.49
2018-05-27T06:12:30.621Z,63.43
2018-05-27T06:14:58.114Z,63.58
2018-05-27T06:17:25.584Z,63.26
2018-05-27T06:19:53.055Z,62.68
2018-05-27T06:22:20.537Z,62.21
2018-05-27T06:24:48.041Z,61.88
2018-05-27T06:27:15.538Z,61.58
2018-05-27T06:29:43.011Z,60.89
2018-05-27T06:32:10.483Z,60.23
2018-05-27T06:34:37.951Z,60.02
2018-05-27T06:37:05.414Z,59.11
2018-05-27T06:39:32.891Z,58.99
2018-05-27T06:42:00.390Z,58.97
2018-05-27T06:44:27.860Z,58.53
2018-05-27T06:46:55.331Z,58.55
2018-05-27T06:49:22.805Z,58.30
2018-05-27T06:51:50.310Z,58.43
2018-05-27T06:54:17.766Z,57.70
2018-05-27T06:56:45.221Z,57.28
2018-05-27T06:59:12.705Z,57.14
2018-05-27T07:01:40.169Z,56.70
2018-05-27T07:04:07.687Z,56.86
2018-05-27T07:06:35.160Z,56.25
2018-05-27T07:09:02.655Z,56.17
2018-05-27T07:11:30.112Z,55.98
2018-05-27T07:13:57.683Z,55.45
2018-05-27T07:16:25.150Z,55.55
2018-05-27T07:18:52.618Z,55.55
2018-05-27T07:21:20.097Z,55.07
2018-05-27T07:23:47.551Z,54.83
2018-05-27T07:26:15.027Z,54.77
2018-05-27T07:28:42.514Z,54.24
2018-05-27T07:31:09.966Z,53.94
2018-05-27T07:33:37.413Z,53.75
2018-05-27T07:36:04.902Z,53.45
2018-05-27T07:38:32.359Z,53.78
2018-05-27T07:40:59.937Z,53.44
2018-05-27T07:43:27.447Z,52.87
2018-05-27T07:45:54.901Z,52.69
2018-05-27T07:48:22.366Z,51.64
2018-05-27T07:50:49.846Z,51.26
2018-05-27T07:53:17.304Z,51.18
2018-05-27T07:55:44.810Z,51.11
2018-05-27T07:58:12.318Z,50.72
2018-05-27T08:00:39.754Z,50.73
2018-05-27T08:03:07.222Z,50.68
2018-05-27T08:05:34.666Z,50.63
2018-05-27T08:08:02.240Z,51.34
2018-05-27T08:10:29.748Z,51.18
2018-05-27T08:12:57.209Z,51.11
2018-05-27T08:15:24.727Z,50.73
2018-05-27T08:17:52.193Z,50.23
2018-05-27T08:20:19.651Z,49.01
2018-05-27T08:22:47.109Z,49.01
2018-05-27T08:25:29.674Z,49.11
2018-05-27T08:27:57.130Z,48.63
2018-05-27T08:30:24.599Z,49.10
2018-05-27T08:32:52.096Z,49.35
2018-05-27T08:35:19.558Z,49.68
2018-05-27T08:37:47.687Z,50.21
2018-05-27T08:40:15.155Z,49.42
2018-05-27T08:42:42.632Z,49.77
2018-05-27T08:45:10.099Z,48.95
2018-05-27T08:47:37.599Z,49.09
2018-05-27T08:50:05.103Z,48.38
2018-05-27T08:52:32.587Z,48.02
2018-05-27T08:55:00.082Z,47.91
2018-05-27T08:57:27.543Z,46.79
2018-05-27T08:59:55.051Z,46.64
2018-05-27T09:02:22.514Z,47.11
2018-05-27T09:04:49.971Z,47.43
2018-05-27T09:07:17.450Z,47.62
2018-05-27T09:09:44.926Z,48.00
2018-05-27T09:12:12.440Z,48.04
2018-05-27T09:14:39.853Z,47.27
2018-05-27T09:17:07.386Z,47.20
2018-05-27T09:19:34.891Z,47.73
2018-05-27T09:22:02.434Z,47.49
2018-05-27T09:24:29.907Z,46.82
2018-05-27T09:26:57.397Z,46.70
2018-05-27T09:29:24.873Z,46.86
2018-05-27T09:31:52.322Z,46.46
2018-05-27T09:34:19.782Z,46.50
2018-05-27T09:36:47.264Z,46.91
2018-05-27T09:39:14.785Z,46.70
2018-05-27T09:41:42.202Z,46.91
2018-05-27T09:44:09.666Z,46.86
2018-05-27T09:46:37.130Z,46.48
2018-05-27T09:49:04.582Z,45.09
2018-05-27T09:51:32.065Z,44.65
2018-05-27T09:53:59.542Z,43.46
2018-05-27T09:56:27.012Z,43.47
2018-05-27T09:58:54.499Z,41.67
2018-05-27T10:01:21.957Z,42.43
2018-05-27T10:03:49.411Z,42.90
2018-05-27T10:06:16.866Z,42.56
2018-05-27T10:08:44.360Z,42.45
2018-05-27T10:11:11.860Z,43.06
2018-05-27T10:13:39.323Z,42.94
2018-05-27T10:16:06.841Z,42.40
2018-05-27T10:18:34.321Z,41.44
2018-05-27T10:21:01.788Z,41.42
2018-05-27T10:23:29.278Z,41.67
2018-05-27T10:25:56.837Z,41.09
2018-05-27T10:28:24.218Z,40.41
2018-05-27T10:30:51.696Z,39.50
2018-05-27T10:33:19.158Z,39.35
2018-05-27T10:35:46.634Z,39.78
2018-05-27T10:38:14.108Z,40.01
2018-05-27T10:40:41.573Z,39.91
2018-05-27T10:43:09.014Z,40.04
2018-05-27T10:45:36.502Z,39.54
2018-05-27T10:48:03.989Z,39.85
2018-05-27T10:50:31.449Z,39.43
2018-05-27T10:52:58.950Z,38.73
2018-05-27T10:55:26.412Z,38.50
2018-05-27T10:57:53.860Z,38.45
2018-05-27T11:00:21.342Z,38.68
2018-05-27T11:02:48.806Z,38.66
2018-05-27T11:05:16.279Z,38.79
2018-05-27T11:07:43.770Z,38.71
2018-05-27T11:10:11.231Z,38.27
2018-05-27T11:12:38.712Z,38.17
2018-05-27T11:15:06.246Z,38.79
2018-05-27T11:17:33.699Z,37.79
2018-05-27T11:20:01.208Z,37.98
2018-05-27T11:22:28.686Z,37.27
2018-05-27T11:24:56.153Z,37.61
2018-05-27T11:27:23.631Z,37.80
2018-05-27T11:29:51.144Z,37.41
2018-05-27T11:32:18.557Z,38.45
2018-05-27T11:34:46.041Z,38.55
2018-05-27T11:37:13.501Z,38.55
2018-05-27T11:39:40.952Z,38.50
2018-05-27T11:42:08.411Z,38.83
2018-05-27T11:44:35.874Z,39.39
2018-05-27T11:47:03.338Z,39.47
2018-05-27T11:49:30.838Z,39.24
2018-05-27T11:51:58.283Z,39.38
2018-05-27T11:54:25.744Z,39.32
2018-05-27T11:56:53.222Z,39.27
2018-05-27T11:59:20.681Z,39.79
2018-05-27T12:01:48.240Z,40.44
2018-05-27T12:04:15.669Z,40.13
2018-05-27T12:06:43.133Z,40.04
2018-05-27T12:09:10.799Z,41.03
2018-05-27T12:11:38.258Z,40.71
2018-05-27T12:14:05.758Z,40.77
2018-05-27T12:16:33.227Z,41.02
2018-05-27T12:19:00.702Z,40.91
2018-05-27T12:21:28.160Z,39.78
2018-05-27T12:23:55.642Z,38.92
2018-05-27T12:26:23.122Z,38.00
2018-05-27T12:28:50.594Z,37.89
2018-05-27T12:31:18.046Z,38.59
2018-05-27T12:33:45.535Z,39.44
2018-05-27T12:36:12.978Z,40.00
2018-05-27T12:38:40.459Z,40.65
2018-05-27T12:41:07.986Z,41.53
2018-05-27T12:43:35.446Z,42.22
2018-05-27T12:46:02.906Z,41.85
2018-05-27T12:48:30.937Z,41.48
2018-05-27T12:50:58.411Z,41.22
2018-05-27T12:53:25.939Z,40.47
2018-05-27T12:55:53.427Z,39.82
2018-05-27T12:58:20.867Z,39.38
2018-05-27T13:00:48.305Z,39.36
2018-05-27T13:03:15.799Z,38.95
2018-05-27T13:05:43.330Z,38.93
2018-05-27T13:08:10.791Z,39.04
2018-05-27T13:10:38.275Z,39.17
2018-05-27T13:13:09.650Z,38.91
2018-05-27T13:15:37.189Z,39.01
2018-05-27T13:18:04.665Z,39.14
2018-05-27T13:20:32.123Z,39.28
2018-05-27T13:22:59.597Z,38.92
2018-05-27T13:25:27.074Z,39.22
2018-05-27T13:27:54.650Z,39.63
2018-05-27T13:30:22.328Z,39.23
2018-05-27T13:32:49.903Z,38.63
2018-05-27T13:35:17.349Z,38.10
2018-05-27T13:37:44.894Z,37.93
2018-05-27T13:40:12.357Z,37.79
2018-05-27T13:42:39.841Z,37.05
2018-05-27T13:45:07.306Z,37.38
2018-05-27T13:47:34.789Z,37.31
2018-05-27T13:50:02.330Z,36.94
2018-05-27T13:52:29.819Z,36.95
2018-05-27T13:54:57.271Z,36.42
2018-05-27T13:57:24.717Z,36.70
2018-05-27T13:59:52.203Z,36.49
2018-05-27T14:02:19.658Z,36.51
2018-05-27T14:04:47.159Z,36.36
2018-05-27T14:07:14.634Z,36.51
2018-05-27T14:09:42.084Z,36.63
2018-05-27T14:12:09.541Z,37.19
2018-05-27T14:14:37.069Z,37.48
2018-05-27T14:17:04.545Z,37.40
2018-05-27T14:19:32.018Z,36.97
2018-05-27T14:21:59.501Z,35.79
2018-05-27T14:24:26.991Z,36.33
2018-05-27T14:26:54.460Z,37.08
2018-05-27T14:29:21.940Z,36.71
2018-05-27T14:31:49.403Z,36.11
2018-05-27T14:34:16.866Z,36.53
2018-05-27T14:36:44.411Z,37.79
2018-05-27T14:39:12.057Z,38.17
2018-05-27T14:41:40.365Z,38.47
2018-05-27T14:44:07.893Z,38.81
2018-05-27T14:46:35.422Z,39.20
2018-05-27T14:49:02.920Z,37.65
2018-05-27T14:51:30.401Z,37.52
2018-05-27T14:53:58.587Z,36.30
2018-05-27T14:56:26.403Z,35.60
2018-05-27T14:58:53.880Z,35.57
2018-05-27T15:01:21.362Z,35.69
2018-05-27T15:03:48.890Z,35.51
2018-05-27T15:06:16.391Z,35.51
2018-05-27T15:08:43.897Z,35.90
2018-05-27T15:11:11.930Z,35.76
2018-05-27T15:13:39.534Z,35.43
2018-05-27T15:16:06.999Z,35.27
2018-05-27T15:18:34.516Z,35.54
2018-05-27T15:21:02.033Z,35.64
2018-05-27T15:23:29.531Z,35.68
2018-05-27T15:25:56.982Z,35.27
2018-05-27T15:28:24.522Z,34.92
2018-05-27T15:30:51.975Z,35.17
2018-05-27T15:33:20.067Z,37.05
2018-05-27T15:35:47.612Z,39.27
2018-05-27T15:38:15.057Z,40.11
2018-05-27T15:40:42.591Z,40.47
2018-05-27T15:43:10.066Z,40.69
2018-05-27T15:45:37.533Z,40.95
2018-05-27T15:48:04.986Z,41.56
2018-05-27T15:50:32.458Z,41.58
2018-05-27T15:52:59.933Z,41.82
2018-05-27T15:55:27.401Z,41.99
2018-05-27T15:57:54.892Z,42.07
2018-05-27T16:00:22.378Z,42.32
2018-05-27T16:02:49.877Z,42.61
2018-05-27T16:05:17.387Z,42.88
2018-05-27T16:07:44.860Z,43.46
2018-05-27T16:10:12.319Z,43.58
2018-05-27T16:12:39.769Z,43.67
2018-05-27T16:15:07.225Z,43.81
2018-05-27T16:17:34.701Z,43.98
2018-05-27T16:20:02.270Z,43.98
2018-05-27T16:22:29.740Z,44.21
2018-05-27T16:24:57.263Z,43.52
2018-05-27T16:27:24.750Z,43.87
2018-05-27T16:29:52.225Z,44.08
2018-05-27T16:32:19.675Z,44.41
2018-05-27T16:34:47.137Z,44.67
2018-05-27T16:37:14.582Z,44.91
2018-05-27T16:39:42.864Z,44.82
2018-05-27T16:42:10.417Z,44.63
2018-05-27T16:44:38.118Z,44.45
2018-05-27T16:47:05.632Z,44.40
2018-05-27T16:49:33.406Z,44.45
2018-05-27T16:52:00.971Z,44.67
2018-05-27T16:54:28.445Z,44.56
2018-05-27T16:56:55.923Z,44.59
2018-05-27T16:59:23.387Z,44.84
2018-05-27T17:01:50.846Z,45.05
2018-05-27T17:04:18.357Z,45.22
2018-05-27T17:06:45.856Z,45.29
2018-05-27T17:09:13.315Z,45.63
2018-05-27T17:11:40.810Z,45.91
2018-05-27T17:14:08.312Z,46.11
2018-05-27T17:16:35.751Z,46.51
2018-05-27T17:19:03.223Z,46.61
2018-05-27T17:21:30.746Z,47.04
2018-05-27T17:23:58.201Z,47.06
2018-05-27T17:26:25.674Z,47.39
2018-05-27T17:28:53.148Z,47.82
2018-05-27T17:31:20.690Z,48.12
2018-05-27T17:33:48.241Z,48.44
2018-05-27T17:36:16.355Z,48.71
2018-05-27T17:38:45.830Z,49.07
2018-05-27T17:41:13.345Z,49.43
2018-05-27T17:43:40.839Z,49.91
2018-05-27T17:46:08.313Z,50.40
2018-05-27T17:48:35.793Z,50.61
2018-05-27T17:51:03.294Z,51.07
2018-05-27T17:53:30.765Z,51.46
2018-05-27T17:55:58.257Z,51.76
2018-05-27T17:58:25.774Z,52.30
2018-05-27T18:00:53.477Z,52.85
2018-05-27T18:03:21.006Z,53.22
2018-05-27T18:05:48.504Z,53.67
2018-05-27T18:08:16.008Z,54.16
2018-05-27T18:10:43.520Z,54.65
2018-05-27T18:13:11.091Z,55.22
2018-05-27T18:15:38.615Z,55.72
2018-05-27T18:18:06.245Z,56.51
2018-05-27T18:20:33.699Z,57.08
2018-05-27T18:23:01.200Z,57.52
2018-05-27T18:25:28.723Z,58.15
2018-05-27T18:27:56.311Z,58.58
2018-05-27T18:30:23.796Z,59.35
2018-05-27T18:32:51.338Z,59.87
2018-05-27T18:35:18.846Z,60.45
2018-05-27T18:37:46.467Z,61.17
2018-05-27T18:40:13.979Z,61.67
2018-05-27T18:42:41.530Z,62.24
2018-05-27T18:45:09.026Z,62.56
2018-05-27T18:47:36.514Z,62.84
2018-05-27T18:50:04.014Z,63.27
2018-05-27T18:52:31.540Z,63.63
2018-05-27T18:54:59.151Z,64.13
2018-05-27T18:57:26.605Z,64.29
2018-05-27T18:59:54.078Z,64.63
2018-05-27T19:02:21.621Z,65.03
2018-05-27T19:04:49.072Z,65.51
2018-05-27T19:07:16.536Z,65.97
2018-05-27T19:09:44.247Z,66.39
2018-05-27T19:12:11.766Z,66.69
2018-05-27T19:14:39.319Z,67.04
2018-05-27T19:17:06.851Z,67.73
2018-05-27T19:19:34.343Z,68.02
2018-05-27T19:22:01.837Z,68.27
2018-05-27T19:24:29.341Z,68.85
2018-05-27T19:26:56.827Z,69.12
2018-05-27T19:29:24.326Z,69.20
2018-05-27T19:31:51.859Z,69.27
2018-05-27T19:34:19.341Z,69.59
2018-05-27T19:36:46.854Z,69.75
2018-05-27T19:39:14.338Z,69.94
2018-05-27T19:41:41.814Z,69.91
2018-05-27T19:44:09.275Z,69.67
2018-05-27T19:46:36.749Z,69.45
2018-05-27T19:49:04.238Z,69.32
2018-05-27T19:51:31.750Z,69.23
2018-05-27T19:53:59.246Z,69.46
2018-05-27T19:56:26.750Z,69.52
2018-05-27T19:58:54.205Z,69.76
2018-05-27T20:01:21.693Z,69.76
2018-05-27T20:03:49.155Z,70.08
2018-05-27T20:06:16.722Z,70.21
2018-05-27T20:08:45.301Z,70.43
2018-05-27T20:11:13.266Z,70.36
2018-05-27T20:13:41.319Z,70.33
2018-05-27T20:16:09.099Z,70.39
2018-05-27T20:18:36.915Z,70.64
2018-05-27T20:21:04.549Z,70.75
2018-05-27T20:23:32.113Z,70.58
2018-05-27T20:25:59.601Z,70.76
2018-05-27T20:28:27.090Z,70.84
2018-05-27T20:30:54.647Z,71.00
2018-05-27T20:33:22.091Z,70.90
2018-05-27T20:35:49.593Z,70.54
2018-05-27T20:38:17.082Z,70.39
2018-05-27T20:40:44.599Z,70.31
2018-05-27T20:43:12.119Z,70.38
2018-05-27T20:45:39.705Z,70.45
2018-05-27T20:48:07.196Z,69.12
2018-05-27T20:50:34.655Z,68.33
2018-05-27T20:53:02.124Z,67.84
2018-05-27T20:55:29.580Z,67.48
2018-05-27T20:57:57.041Z,66.55
2018-05-27T21:00:24.511Z,66.05
2018-05-27T21:02:52.071Z,65.81
2018-05-27T21:05:19.527Z,65.76
2018-05-27T21:07:46.999Z,65.90
2018-05-27T21:10:14.518Z,66.20
2018-05-27T21:12:42.110Z,66.34
2018-05-27T21:15:09.582Z,66.44
2018-05-27T21:17:37.099Z,66.84
2018-05-27T21:20:04.651Z,66.97
2018-05-27T21:22:32.216Z,67.82
2018-05-27T21:24:59.667Z,67.85
2018-05-27T21:27:27.254Z,67.71
2018-05-27T21:29:54.747Z,67.50
2018-05-27T21:32:23.298Z,67.25
2018-05-27T21:34:50.796Z,67.68
2018-05-27T21:37:18.342Z,67.75
2018-05-27T21:39:45.864Z,67.91
2018-05-27T21:42:13.321Z,67.78
2018-05-27T21:44:40.891Z,67.80
2018-05-27T21:47:08.391Z,68.18
2018-05-27T21:49:35.857Z,68.19
2018-05-27T21:52:04.752Z,68.56
2018-05-27T21:54:33.880Z,68.56
2018-05-27T21:57:01.478Z,68.55
2018-05-27T21:59:28.943Z,68.57
2018-05-27T22:01:56.463Z,68.63
2018-05-27T22:04:23.934Z,68.61
2018-05-27T22:06:51.462Z,69.40
2018-05-27T22:09:18.930Z,70.28
2018-05-27T22:11:46.408Z,70.94
2018-05-27T22:14:13.976Z,70.86
2018-05-27T22:16:41.489Z,70.89
2018-05-27T22:19:10.307Z,71.19
2018-05-27T22:21:43.768Z,71.40
2018-05-27T22:24:12.207Z,71.62
2018-05-27T22:26:40.318Z,71.58
2018-05-27T22:29:07.837Z,71.74
2018-05-27T22:31:35.309Z,72.09
2018-05-27T22:34:02.836Z,72.83
2018-05-27T22:36:30.315Z,73.48
2018-05-27T22:38:57.795Z,73.60
2018-05-27T22:41:25.363Z,73.78
2018-05-27T22:43:53.724Z,73.92
2018-05-27T22:46:21.246Z,74.08
2018-05-27T22:48:48.749Z,74.19
2018-05-27T22:51:16.260Z,74.44
2018-05-27T22:53:43.729Z,74.72
2018-05-27T22:56:11.294Z,75.02
2018-05-27T22:58:38.801Z,75.18
2018-05-27T23:01:06.454Z,75.65
2018-05-27T23:03:33.933Z,76.32
2018-05-27T23:06:01.443Z,76.27
2018-05-27T23:08:28.942Z,76.93
2018-05-27T23:10:56.421Z,77.08
2018-05-27T23:13:23.902Z,77.64
2018-05-27T23:15:51.392Z,78.09
2018-05-27T23:18:19.725Z,78.11
2018-05-27T23:20:47.195Z,78.76
2018-05-27T23:23:14.667Z,79.18
2018-05-27T23:25:42.146Z,79.55
2018-05-27T23:28:10.467Z,79.91
2018-05-27T23:30:38.011Z,80.22
2018-05-27T23:33:05.565Z,80.32
2018-05-27T23:35:33.081Z,80.16
2018-05-27T23:38:00.639Z,80.16
2018-05-27T23:40:28.187Z,80.16
2018-05-27T23:42:55.718Z,80.44
2018-05-27T23:45:23.241Z,80.39
2018-05-27T23:47:50.726Z,80.71
2018-05-27T23:50:18.226Z,81.00
2018-05-27T23:52:45.813Z,81.32
2018-05-27T23:55:14.226Z,81.50
2018-05-27T23:57:41.689Z,81.66
